<?xml version="1.0" encoding="UTF-8" standalone="no" ?>
<gpx xmlns="http://www.topografix.com/GPX/1/1" xmlns:xsi="http://www.w3.org/2001/XMLSchema-instance" xsi:schemaLocation="http://www.topografix.com/GPX/1/1 http://www.topografix.com/GPX/1/1/gpx.xsd" version="1.1" creator="VisuGPX - https://www.visugpx.com">
  <metadata>
    <name>Lauret</name>
    <desc><![CDATA[Lauret]]></desc>
  </metadata>
  <trk>
    <name><![CDATA[Lauret]]></name>
    <trkseg>
      <trkpt lat="43.84292" lon="3.87912">
        <ele>190</ele>
        <time>2012-01-20T10:37:34Z</time>
      </trkpt>
      <trkpt lat="43.843" lon="3.87918">
        <ele>190</ele>
        <time>2012-01-20T10:47:42Z</time>
      </trkpt>
      <trkpt lat="43.8429" lon="3.8791">
        <ele>190</ele>
        <time>2012-01-20T10:52:21Z</time>
      </trkpt>
      <trkpt lat="43.84298" lon="3.87916">
        <ele>190</ele>
        <time>2012-01-20T10:53:28Z</time>
      </trkpt>
      <trkpt lat="43.84294" lon="3.87905">
        <ele>190</ele>
        <time>2012-01-20T10:55:53Z</time>
      </trkpt>
      <trkpt lat="43.8429" lon="3.87869">
        <ele>191</ele>
        <time>2012-01-20T10:57:31Z</time>
      </trkpt>
      <trkpt lat="43.84292" lon="3.87843">
        <ele>191</ele>
        <time>2012-01-20T10:57:47Z</time>
      </trkpt>
      <trkpt lat="43.84298" lon="3.87804">
        <ele>194</ele>
        <time>2012-01-20T10:58:13Z</time>
      </trkpt>
      <trkpt lat="43.84311" lon="3.87775">
        <ele>194</ele>
        <time>2012-01-20T10:58:34Z</time>
      </trkpt>
      <trkpt lat="43.84339" lon="3.87672">
        <ele>196</ele>
        <time>2012-01-20T10:59:44Z</time>
      </trkpt>
      <trkpt lat="43.84352" lon="3.87635">
        <ele>199</ele>
        <time>2012-01-20T11:00:09Z</time>
      </trkpt>
      <trkpt lat="43.84377" lon="3.87577">
        <ele>208</ele>
        <time>2012-01-20T11:00:54Z</time>
      </trkpt>
      <trkpt lat="43.84375" lon="3.87541">
        <ele>211</ele>
        <time>2012-01-20T11:01:21Z</time>
      </trkpt>
      <trkpt lat="43.84412" lon="3.8753">
        <ele>209</ele>
        <time>2012-01-20T11:01:58Z</time>
      </trkpt>
      <trkpt lat="43.8447" lon="3.87478">
        <ele>213</ele>
        <time>2012-01-20T11:02:54Z</time>
      </trkpt>
      <trkpt lat="43.845" lon="3.87457">
        <ele>214</ele>
        <time>2012-01-20T11:03:24Z</time>
      </trkpt>
      <trkpt lat="43.84511" lon="3.87438">
        <ele>213</ele>
        <time>2012-01-20T11:03:40Z</time>
      </trkpt>
      <trkpt lat="43.84534" lon="3.87423">
        <ele>212</ele>
        <time>2012-01-20T11:04:01Z</time>
      </trkpt>
      <trkpt lat="43.84545" lon="3.87397">
        <ele>217</ele>
        <time>2012-01-20T11:04:21Z</time>
      </trkpt>
      <trkpt lat="43.84551" lon="3.87371">
        <ele>219</ele>
        <time>2012-01-20T11:04:39Z</time>
      </trkpt>
      <trkpt lat="43.84575" lon="3.87348">
        <ele>219</ele>
        <time>2012-01-20T11:05:06Z</time>
      </trkpt>
      <trkpt lat="43.84611" lon="3.87337">
        <ele>224</ele>
        <time>2012-01-20T11:05:49Z</time>
      </trkpt>
      <trkpt lat="43.84654" lon="3.87335">
        <ele>230</ele>
        <time>2012-01-20T11:09:11Z</time>
      </trkpt>
      <trkpt lat="43.84656" lon="3.8732">
        <ele>235</ele>
        <time>2012-01-20T11:17:42Z</time>
      </trkpt>
      <trkpt lat="43.84665" lon="3.87298">
        <ele>238</ele>
        <time>2012-01-20T11:18:08Z</time>
      </trkpt>
      <trkpt lat="43.8468" lon="3.87287">
        <ele>252</ele>
        <time>2012-01-20T11:18:44Z</time>
      </trkpt>
      <trkpt lat="43.84669" lon="3.87283">
        <ele>252</ele>
        <time>2012-01-20T11:20:19Z</time>
      </trkpt>
      <trkpt lat="43.84622" lon="3.8733">
        <ele>233</ele>
        <time>2012-01-20T11:22:59Z</time>
      </trkpt>
      <trkpt lat="43.84641" lon="3.87343">
        <ele>228</ele>
        <time>2012-01-20T11:24:50Z</time>
      </trkpt>
      <trkpt lat="43.84635" lon="3.87375">
        <ele>226</ele>
        <time>2012-01-20T11:25:22Z</time>
      </trkpt>
      <trkpt lat="43.84663" lon="3.87362">
        <ele>229</ele>
        <time>2016-02-08T11:10:05Z</time>
      </trkpt>
      <trkpt lat="43.84649" lon="3.8737">
        <ele>228</ele>
        <time>2016-02-08T11:10:43Z</time>
      </trkpt>
      <trkpt lat="43.8463" lon="3.87408">
        <ele>226</ele>
        <time>2016-02-08T11:11:19Z</time>
      </trkpt>
      <trkpt lat="43.84615" lon="3.87417">
        <ele>222</ele>
        <time>2016-02-08T11:11:38Z</time>
      </trkpt>
      <trkpt lat="43.84607" lon="3.8743">
        <ele>221</ele>
        <time>2016-02-08T11:11:55Z</time>
      </trkpt>
      <trkpt lat="43.8459" lon="3.87474">
        <ele>220</ele>
        <time>2016-02-08T11:12:32Z</time>
      </trkpt>
      <trkpt lat="43.84558" lon="3.87522">
        <ele>210</ele>
        <time>2016-02-08T11:13:17Z</time>
      </trkpt>
      <trkpt lat="43.84555" lon="3.87536">
        <ele>210</ele>
        <time>2016-02-08T11:13:51Z</time>
      </trkpt>
      <trkpt lat="43.84563" lon="3.87544">
        <ele>211</ele>
        <time>2016-02-08T11:14:02Z</time>
      </trkpt>
      <trkpt lat="43.84577" lon="3.87573">
        <ele>215</ele>
        <time>2016-02-08T11:14:39Z</time>
      </trkpt>
      <trkpt lat="43.84579" lon="3.87587">
        <ele>217</ele>
        <time>2016-02-08T11:14:54Z</time>
      </trkpt>
      <trkpt lat="43.84603" lon="3.87616">
        <ele>223</ele>
        <time>2016-02-08T11:15:47Z</time>
      </trkpt>
      <trkpt lat="43.84612" lon="3.87615">
        <ele>224</ele>
        <time>2016-02-08T11:17:34Z</time>
      </trkpt>
      <trkpt lat="43.84619" lon="3.87596">
        <ele>224</ele>
        <time>2016-02-08T11:19:19Z</time>
      </trkpt>
      <trkpt lat="43.84627" lon="3.87585">
        <ele>226</ele>
        <time>2016-02-08T11:19:31Z</time>
      </trkpt>
      <trkpt lat="43.84658" lon="3.87561">
        <ele>231</ele>
        <time>2016-02-08T11:20:36Z</time>
      </trkpt>
      <trkpt lat="43.84699" lon="3.87519">
        <ele>244</ele>
        <time>2016-02-08T11:21:22Z</time>
      </trkpt>
      <trkpt lat="43.84715" lon="3.8749">
        <ele>248</ele>
        <time>2016-02-08T11:21:49Z</time>
      </trkpt>
      <trkpt lat="43.84725" lon="3.87477">
        <ele>249</ele>
        <time>2016-02-08T11:22:04Z</time>
      </trkpt>
      <trkpt lat="43.84765" lon="3.87454">
        <ele>259</ele>
        <time>2016-02-08T11:22:47Z</time>
      </trkpt>
      <trkpt lat="43.84776" lon="3.8744">
        <ele>259</ele>
        <time>2016-02-08T11:22:59Z</time>
      </trkpt>
      <trkpt lat="43.84826" lon="3.87356">
        <ele>268</ele>
        <time>2016-02-08T11:24:24Z</time>
      </trkpt>
      <trkpt lat="43.84837" lon="3.87326">
        <ele>278</ele>
        <time>2016-02-08T11:24:51Z</time>
      </trkpt>
      <trkpt lat="43.84851" lon="3.87315">
        <ele>283</ele>
        <time>2016-02-08T11:25:13Z</time>
      </trkpt>
      <trkpt lat="43.84866" lon="3.87329">
        <ele>285</ele>
        <time>2016-02-08T11:26:45Z</time>
      </trkpt>
      <trkpt lat="43.84872" lon="3.87361">
        <ele>279</ele>
        <time>2016-02-08T11:27:06Z</time>
      </trkpt>
      <trkpt lat="43.84892" lon="3.87408">
        <ele>279</ele>
        <time>2016-02-08T11:30:53Z</time>
      </trkpt>
      <trkpt lat="43.84906" lon="3.87433">
        <ele>277</ele>
        <time>2016-02-08T11:31:11Z</time>
      </trkpt>
      <trkpt lat="43.84921" lon="3.87452">
        <ele>282</ele>
        <time>2016-02-08T11:31:29Z</time>
      </trkpt>
      <trkpt lat="43.84936" lon="3.87474">
        <ele>281</ele>
        <time>2016-02-08T11:32:02Z</time>
      </trkpt>
      <trkpt lat="43.84942" lon="3.87487">
        <ele>281</ele>
        <time>2016-02-08T11:32:13Z</time>
      </trkpt>
      <trkpt lat="43.8495" lon="3.87496">
        <ele>281</ele>
        <time>2016-02-08T11:32:23Z</time>
      </trkpt>
      <trkpt lat="43.84972" lon="3.87503">
        <ele>278</ele>
        <time>2016-02-08T11:32:44Z</time>
      </trkpt>
      <trkpt lat="43.84991" lon="3.87491">
        <ele>281</ele>
        <time>2016-02-08T11:33:06Z</time>
      </trkpt>
      <trkpt lat="43.8501" lon="3.87467">
        <ele>279</ele>
        <time>2016-02-08T11:33:28Z</time>
      </trkpt>
      <trkpt lat="43.85022" lon="3.87461">
        <ele>279</ele>
        <time>2016-02-08T11:33:39Z</time>
      </trkpt>
      <trkpt lat="43.85058" lon="3.87416">
        <ele>282</ele>
        <time>2016-02-08T11:34:22Z</time>
      </trkpt>
      <trkpt lat="43.85074" lon="3.8735">
        <ele>283</ele>
        <time>2016-02-08T11:35:09Z</time>
      </trkpt>
      <trkpt lat="43.85075" lon="3.87298">
        <ele>286</ele>
        <time>2016-02-08T11:35:36Z</time>
      </trkpt>
      <trkpt lat="43.85066" lon="3.87253">
        <ele>284</ele>
        <time>2016-02-08T11:36:02Z</time>
      </trkpt>
      <trkpt lat="43.85052" lon="3.8721">
        <ele>288</ele>
        <time>2016-02-08T11:37:45Z</time>
      </trkpt>
      <trkpt lat="43.85049" lon="3.8718">
        <ele>287</ele>
        <time>2016-02-08T11:38:00Z</time>
      </trkpt>
      <trkpt lat="43.85051" lon="3.87154">
        <ele>289</ele>
        <time>2016-02-08T11:38:16Z</time>
      </trkpt>
      <trkpt lat="43.85047" lon="3.8713">
        <ele>292</ele>
        <time>2016-02-08T11:38:34Z</time>
      </trkpt>
      <trkpt lat="43.85051" lon="3.87117">
        <ele>292</ele>
        <time>2016-02-08T11:38:43Z</time>
      </trkpt>
      <trkpt lat="43.85056" lon="3.87073">
        <ele>300</ele>
        <time>2016-02-08T11:39:29Z</time>
      </trkpt>
      <trkpt lat="43.85061" lon="3.87059">
        <ele>300</ele>
        <time>2016-02-08T11:39:39Z</time>
      </trkpt>
      <trkpt lat="43.85083" lon="3.87055">
        <ele>299</ele>
        <time>2016-02-08T11:40:00Z</time>
      </trkpt>
      <trkpt lat="43.85093" lon="3.87056">
        <ele>295</ele>
        <time>2016-02-08T11:40:08Z</time>
      </trkpt>
      <trkpt lat="43.85107" lon="3.87076">
        <ele>294</ele>
        <time>2016-02-08T11:40:27Z</time>
      </trkpt>
      <trkpt lat="43.85131" lon="3.87122">
        <ele>284</ele>
        <time>2016-02-08T11:41:08Z</time>
      </trkpt>
      <trkpt lat="43.85143" lon="3.8713">
        <ele>283</ele>
        <time>2016-02-08T11:41:20Z</time>
      </trkpt>
      <trkpt lat="43.85163" lon="3.87172">
        <ele>273</ele>
        <time>2016-02-08T11:41:53Z</time>
      </trkpt>
      <trkpt lat="43.85194" lon="3.87207">
        <ele>270</ele>
        <time>2016-02-08T11:42:33Z</time>
      </trkpt>
      <trkpt lat="43.85218" lon="3.87242">
        <ele>268</ele>
        <time>2016-02-08T11:42:59Z</time>
      </trkpt>
      <trkpt lat="43.85238" lon="3.8726">
        <ele>258</ele>
        <time>2016-02-08T11:43:18Z</time>
      </trkpt>
      <trkpt lat="43.85248" lon="3.87267">
        <ele>258</ele>
        <time>2016-02-08T11:43:30Z</time>
      </trkpt>
      <trkpt lat="43.85257" lon="3.87277">
        <ele>259</ele>
        <time>2016-02-08T11:43:42Z</time>
      </trkpt>
      <trkpt lat="43.8527" lon="3.87307">
        <ele>254</ele>
        <time>2016-02-08T11:44:03Z</time>
      </trkpt>
      <trkpt lat="43.85274" lon="3.87338">
        <ele>242</ele>
        <time>2016-02-08T11:44:20Z</time>
      </trkpt>
      <trkpt lat="43.85291" lon="3.87376">
        <ele>240</ele>
        <time>2016-02-08T11:44:48Z</time>
      </trkpt>
      <trkpt lat="43.85309" lon="3.87416">
        <ele>238</ele>
        <time>2016-02-08T11:45:15Z</time>
      </trkpt>
      <trkpt lat="43.85348" lon="3.87443">
        <ele>232</ele>
        <time>2016-02-08T11:45:52Z</time>
      </trkpt>
      <trkpt lat="43.8536" lon="3.87448">
        <ele>231</ele>
        <time>2016-02-08T11:46:05Z</time>
      </trkpt>
      <trkpt lat="43.85382" lon="3.87469">
        <ele>229</ele>
        <time>2016-02-08T11:46:28Z</time>
      </trkpt>
      <trkpt lat="43.85393" lon="3.87477">
        <ele>228</ele>
        <time>2016-02-08T11:46:40Z</time>
      </trkpt>
      <trkpt lat="43.8541" lon="3.87497">
        <ele>225</ele>
        <time>2016-02-08T11:47:02Z</time>
      </trkpt>
      <trkpt lat="43.8542" lon="3.87498">
        <ele>223</ele>
        <time>2016-02-08T11:47:11Z</time>
      </trkpt>
      <trkpt lat="43.85426" lon="3.87508">
        <ele>220</ele>
        <time>2016-02-08T11:47:59Z</time>
      </trkpt>
      <trkpt lat="43.85423" lon="3.87521">
        <ele>218</ele>
        <time>2016-02-08T11:48:08Z</time>
      </trkpt>
      <trkpt lat="43.85429" lon="3.8756">
        <ele>215</ele>
        <time>2016-02-08T11:48:34Z</time>
      </trkpt>
      <trkpt lat="43.85443" lon="3.87594">
        <ele>211</ele>
        <time>2016-02-08T11:48:56Z</time>
      </trkpt>
      <trkpt lat="43.85458" lon="3.87615">
        <ele>211</ele>
        <time>2016-02-08T11:49:12Z</time>
      </trkpt>
      <trkpt lat="43.85463" lon="3.87627">
        <ele>210</ele>
        <time>2016-02-08T11:49:20Z</time>
      </trkpt>
      <trkpt lat="43.85464" lon="3.87654">
        <ele>210</ele>
        <time>2016-02-08T11:49:35Z</time>
      </trkpt>
      <trkpt lat="43.85473" lon="3.87678">
        <ele>207</ele>
        <time>2016-02-08T11:49:52Z</time>
      </trkpt>
      <trkpt lat="43.85472" lon="3.87739">
        <ele>205</ele>
        <time>2016-02-08T11:50:28Z</time>
      </trkpt>
      <trkpt lat="43.85479" lon="3.87786">
        <ele>203</ele>
        <time>2016-02-08T11:50:52Z</time>
      </trkpt>
      <trkpt lat="43.85485" lon="3.87796">
        <ele>203</ele>
        <time>2016-02-08T11:51:00Z</time>
      </trkpt>
      <trkpt lat="43.85507" lon="3.87798">
        <ele>199</ele>
        <time>2016-02-08T11:51:16Z</time>
      </trkpt>
      <trkpt lat="43.85516" lon="3.87804">
        <ele>199</ele>
        <time>2016-02-08T11:51:23Z</time>
      </trkpt>
      <trkpt lat="43.85522" lon="3.87814">
        <ele>199</ele>
        <time>2016-02-08T11:51:33Z</time>
      </trkpt>
      <trkpt lat="43.85524" lon="3.87858">
        <ele>196</ele>
        <time>2016-02-08T11:51:56Z</time>
      </trkpt>
      <trkpt lat="43.85534" lon="3.87881">
        <ele>194</ele>
        <time>2016-02-08T11:52:11Z</time>
      </trkpt>
      <trkpt lat="43.85585" lon="3.87899">
        <ele>190</ele>
        <time>2016-02-08T11:52:50Z</time>
      </trkpt>
      <trkpt lat="43.8563" lon="3.87907">
        <ele>191</ele>
        <time>2016-02-08T11:53:23Z</time>
      </trkpt>
      <trkpt lat="43.85639" lon="3.87902">
        <ele>191</ele>
        <time>2016-02-08T11:53:31Z</time>
      </trkpt>
      <trkpt lat="43.85652" lon="3.8788">
        <ele>191</ele>
        <time>2016-02-08T11:53:48Z</time>
      </trkpt>
      <trkpt lat="43.85662" lon="3.87878">
        <ele>191</ele>
        <time>2016-02-08T11:53:57Z</time>
      </trkpt>
      <trkpt lat="43.85682" lon="3.87864">
        <ele>191</ele>
        <time>2016-02-08T11:54:16Z</time>
      </trkpt>
      <trkpt lat="43.85711" lon="3.87872">
        <ele>190</ele>
        <time>2016-02-08T11:54:40Z</time>
      </trkpt>
      <trkpt lat="43.85721" lon="3.87869">
        <ele>190</ele>
        <time>2016-02-08T11:54:48Z</time>
      </trkpt>
      <trkpt lat="43.85739" lon="3.87852">
        <ele>190</ele>
        <time>2016-02-08T11:55:02Z</time>
      </trkpt>
      <trkpt lat="43.85749" lon="3.87851">
        <ele>190</ele>
        <time>2016-02-08T11:55:09Z</time>
      </trkpt>
      <trkpt lat="43.85834" lon="3.87874">
        <ele>182</ele>
        <time>2016-02-08T11:56:14Z</time>
      </trkpt>
      <trkpt lat="43.85844" lon="3.87871">
        <ele>182</ele>
        <time>2016-02-08T11:56:22Z</time>
      </trkpt>
      <trkpt lat="43.85853" lon="3.87861">
        <ele>182</ele>
        <time>2016-02-08T11:56:30Z</time>
      </trkpt>
      <trkpt lat="43.85856" lon="3.87848">
        <ele>182</ele>
        <time>2016-02-08T11:56:38Z</time>
      </trkpt>
      <trkpt lat="43.85854" lon="3.87835">
        <ele>182</ele>
        <time>2016-02-08T11:56:46Z</time>
      </trkpt>
      <trkpt lat="43.85859" lon="3.8779">
        <ele>185</ele>
        <time>2016-02-08T11:57:15Z</time>
      </trkpt>
      <trkpt lat="43.85878" lon="3.87755">
        <ele>185</ele>
        <time>2016-02-08T11:57:41Z</time>
      </trkpt>
      <trkpt lat="43.85886" lon="3.87728">
        <ele>187</ele>
        <time>2016-02-08T11:57:59Z</time>
      </trkpt>
      <trkpt lat="43.85892" lon="3.87717">
        <ele>186</ele>
        <time>2016-02-08T11:58:08Z</time>
      </trkpt>
      <trkpt lat="43.85871" lon="3.87728">
        <ele>188</ele>
        <time>2016-02-08T11:58:30Z</time>
      </trkpt>
      <trkpt lat="43.85865" lon="3.87716">
        <ele>188</ele>
        <time>2016-02-08T11:58:40Z</time>
      </trkpt>
      <trkpt lat="43.85868" lon="3.87687">
        <ele>189</ele>
        <time>2016-02-08T11:58:59Z</time>
      </trkpt>
      <trkpt lat="43.85887" lon="3.87614">
        <ele>189</ele>
        <time>2016-02-08T11:59:49Z</time>
      </trkpt>
      <trkpt lat="43.85886" lon="3.876">
        <ele>190</ele>
        <time>2016-02-08T11:59:57Z</time>
      </trkpt>
      <trkpt lat="43.85861" lon="3.87499">
        <ele>191</ele>
        <time>2016-02-08T12:01:32Z</time>
      </trkpt>
      <trkpt lat="43.85862" lon="3.87485">
        <ele>191</ele>
        <time>2016-02-08T12:01:42Z</time>
      </trkpt>
      <trkpt lat="43.8587" lon="3.87452">
        <ele>191</ele>
        <time>2016-02-08T12:02:08Z</time>
      </trkpt>
      <trkpt lat="43.85878" lon="3.87446">
        <ele>191</ele>
        <time>2016-02-08T12:02:18Z</time>
      </trkpt>
      <trkpt lat="43.85888" lon="3.8745">
        <ele>191</ele>
        <time>2016-02-08T12:02:44Z</time>
      </trkpt>
      <trkpt lat="43.8589" lon="3.87436">
        <ele>191</ele>
        <time>2016-02-08T12:02:54Z</time>
      </trkpt>
      <trkpt lat="43.85896" lon="3.87423">
        <ele>190</ele>
        <time>2016-02-08T12:03:05Z</time>
      </trkpt>
      <trkpt lat="43.85907" lon="3.87423">
        <ele>190</ele>
        <time>2016-02-08T12:03:26Z</time>
      </trkpt>
      <trkpt lat="43.859" lon="3.87417">
        <ele>190</ele>
        <time>2016-02-08T12:49:40Z</time>
      </trkpt>
      <trkpt lat="43.85874" lon="3.87409">
        <ele>192</ele>
        <time>2016-02-08T12:50:31Z</time>
      </trkpt>
      <trkpt lat="43.85848" lon="3.87388">
        <ele>193</ele>
        <time>2016-02-08T12:51:29Z</time>
      </trkpt>
      <trkpt lat="43.85838" lon="3.87384">
        <ele>193</ele>
        <time>2016-02-08T12:51:41Z</time>
      </trkpt>
      <trkpt lat="43.85822" lon="3.87362">
        <ele>198</ele>
        <time>2016-02-08T12:52:09Z</time>
      </trkpt>
      <trkpt lat="43.85816" lon="3.87349">
        <ele>198</ele>
        <time>2016-02-08T12:52:22Z</time>
      </trkpt>
      <trkpt lat="43.85791" lon="3.87357">
        <ele>199</ele>
        <time>2016-02-08T12:52:54Z</time>
      </trkpt>
      <trkpt lat="43.8578" lon="3.87353">
        <ele>200</ele>
        <time>2016-02-08T12:53:18Z</time>
      </trkpt>
      <trkpt lat="43.8577" lon="3.87346">
        <ele>201</ele>
        <time>2016-02-08T12:53:30Z</time>
      </trkpt>
      <trkpt lat="43.8577" lon="3.87327">
        <ele>204</ele>
        <time>2016-02-08T12:53:45Z</time>
      </trkpt>
      <trkpt lat="43.85765" lon="3.87313">
        <ele>204</ele>
        <time>2016-02-08T12:53:56Z</time>
      </trkpt>
      <trkpt lat="43.85755" lon="3.87305">
        <ele>204</ele>
        <time>2016-02-08T12:54:06Z</time>
      </trkpt>
      <trkpt lat="43.85733" lon="3.87297">
        <ele>212</ele>
        <time>2016-02-08T12:54:28Z</time>
      </trkpt>
      <trkpt lat="43.85721" lon="3.87299">
        <ele>213</ele>
        <time>2016-02-08T12:54:41Z</time>
      </trkpt>
      <trkpt lat="43.8571" lon="3.87298">
        <ele>213</ele>
        <time>2016-02-08T12:54:54Z</time>
      </trkpt>
      <trkpt lat="43.85701" lon="3.87293">
        <ele>214</ele>
        <time>2016-02-08T12:55:04Z</time>
      </trkpt>
      <trkpt lat="43.85677" lon="3.87293">
        <ele>216</ele>
        <time>2016-02-08T12:55:32Z</time>
      </trkpt>
      <trkpt lat="43.85633" lon="3.87263">
        <ele>227</ele>
        <time>2016-02-08T12:56:24Z</time>
      </trkpt>
      <trkpt lat="43.85607" lon="3.8726">
        <ele>231</ele>
        <time>2016-02-08T12:56:57Z</time>
      </trkpt>
      <trkpt lat="43.85598" lon="3.87214">
        <ele>238</ele>
        <time>2016-02-08T12:57:37Z</time>
      </trkpt>
      <trkpt lat="43.85608" lon="3.87201">
        <ele>238</ele>
        <time>2016-02-08T12:57:48Z</time>
      </trkpt>
      <trkpt lat="43.85618" lon="3.87197">
        <ele>237</ele>
        <time>2016-02-08T12:57:58Z</time>
      </trkpt>
      <trkpt lat="43.85631" lon="3.87174">
        <ele>237</ele>
        <time>2016-02-08T12:58:18Z</time>
      </trkpt>
      <trkpt lat="43.85631" lon="3.87157">
        <ele>241</ele>
        <time>2016-02-08T12:58:28Z</time>
      </trkpt>
      <trkpt lat="43.85641" lon="3.87135">
        <ele>240</ele>
        <time>2016-02-08T12:58:41Z</time>
      </trkpt>
      <trkpt lat="43.85644" lon="3.87116">
        <ele>240</ele>
        <time>2016-02-08T12:58:54Z</time>
      </trkpt>
      <trkpt lat="43.85642" lon="3.87056">
        <ele>240</ele>
        <time>2016-02-08T12:59:33Z</time>
      </trkpt>
      <trkpt lat="43.85635" lon="3.87029">
        <ele>240</ele>
        <time>2016-02-08T12:59:50Z</time>
      </trkpt>
      <trkpt lat="43.85626" lon="3.87018">
        <ele>241</ele>
        <time>2016-02-08T12:59:59Z</time>
      </trkpt>
      <trkpt lat="43.8563" lon="3.86996">
        <ele>239</ele>
        <time>2016-02-08T13:00:20Z</time>
      </trkpt>
      <trkpt lat="43.85652" lon="3.86947">
        <ele>236</ele>
        <time>2016-02-08T13:01:02Z</time>
      </trkpt>
      <trkpt lat="43.85656" lon="3.86931">
        <ele>234</ele>
        <time>2016-02-08T13:01:13Z</time>
      </trkpt>
      <trkpt lat="43.85656" lon="3.86914">
        <ele>231</ele>
        <time>2016-02-08T13:01:25Z</time>
      </trkpt>
      <trkpt lat="43.85666" lon="3.86854">
        <ele>232</ele>
        <time>2016-02-08T13:02:12Z</time>
      </trkpt>
      <trkpt lat="43.85655" lon="3.8684">
        <ele>231</ele>
        <time>2016-02-08T13:02:35Z</time>
      </trkpt>
      <trkpt lat="43.85652" lon="3.86797">
        <ele>228</ele>
        <time>2016-02-08T13:03:11Z</time>
      </trkpt>
      <trkpt lat="43.8564" lon="3.86766">
        <ele>226</ele>
        <time>2016-02-08T13:03:37Z</time>
      </trkpt>
      <trkpt lat="43.85639" lon="3.86753">
        <ele>225</ele>
        <time>2016-02-08T13:03:46Z</time>
      </trkpt>
      <trkpt lat="43.85634" lon="3.86761">
        <ele>227</ele>
        <time>2016-02-08T13:04:46Z</time>
      </trkpt>
      <trkpt lat="43.8561" lon="3.86761">
        <ele>231</ele>
        <time>2016-02-08T13:05:19Z</time>
      </trkpt>
      <trkpt lat="43.85602" lon="3.86751">
        <ele>231</ele>
        <time>2016-02-08T13:05:44Z</time>
      </trkpt>
      <trkpt lat="43.85583" lon="3.86739">
        <ele>231</ele>
        <time>2016-02-08T13:06:23Z</time>
      </trkpt>
      <trkpt lat="43.85571" lon="3.86713">
        <ele>235</ele>
        <time>2016-02-08T13:06:44Z</time>
      </trkpt>
      <trkpt lat="43.85558" lon="3.86695">
        <ele>235</ele>
        <time>2016-02-08T13:07:07Z</time>
      </trkpt>
      <trkpt lat="43.85547" lon="3.86694">
        <ele>236</ele>
        <time>2016-02-08T13:07:19Z</time>
      </trkpt>
      <trkpt lat="43.85539" lon="3.86687">
        <ele>236</ele>
        <time>2016-02-08T13:07:28Z</time>
      </trkpt>
      <trkpt lat="43.85519" lon="3.86695">
        <ele>237</ele>
        <time>2016-02-08T13:07:49Z</time>
      </trkpt>
      <trkpt lat="43.85495" lon="3.86692">
        <ele>242</ele>
        <time>2016-02-08T13:08:24Z</time>
      </trkpt>
      <trkpt lat="43.85473" lon="3.86703">
        <ele>244</ele>
        <time>2016-02-08T13:09:37Z</time>
      </trkpt>
      <trkpt lat="43.85452" lon="3.86698">
        <ele>245</ele>
        <time>2016-02-08T13:10:14Z</time>
      </trkpt>
      <trkpt lat="43.85442" lon="3.86702">
        <ele>245</ele>
        <time>2016-02-08T13:10:38Z</time>
      </trkpt>
      <trkpt lat="43.85434" lon="3.86695">
        <ele>245</ele>
        <time>2016-02-08T13:10:57Z</time>
      </trkpt>
      <trkpt lat="43.85422" lon="3.867">
        <ele>246</ele>
        <time>2016-02-08T13:11:15Z</time>
      </trkpt>
      <trkpt lat="43.85412" lon="3.867">
        <ele>251</ele>
        <time>2016-02-08T13:11:39Z</time>
      </trkpt>
      <trkpt lat="43.8539" lon="3.86709">
        <ele>253</ele>
        <time>2016-02-08T13:12:33Z</time>
      </trkpt>
      <trkpt lat="43.85382" lon="3.86702">
        <ele>253</ele>
        <time>2016-02-08T13:14:57Z</time>
      </trkpt>
      <trkpt lat="43.85371" lon="3.86705">
        <ele>254</ele>
        <time>2016-02-08T13:15:12Z</time>
      </trkpt>
      <trkpt lat="43.85326" lon="3.86693">
        <ele>260</ele>
        <time>2016-02-08T13:16:59Z</time>
      </trkpt>
      <trkpt lat="43.85323" lon="3.86703">
        <ele>261</ele>
        <time>2016-02-08T13:18:34Z</time>
      </trkpt>
      <trkpt lat="43.85317" lon="3.86696">
        <ele>261</ele>
        <time>2016-02-08T13:19:43Z</time>
      </trkpt>
      <trkpt lat="43.85305" lon="3.8669">
        <ele>261</ele>
        <time>2016-02-08T13:20:07Z</time>
      </trkpt>
      <trkpt lat="43.85291" lon="3.8669">
        <ele>262</ele>
        <time>2016-02-08T13:20:43Z</time>
      </trkpt>
      <trkpt lat="43.85279" lon="3.86694">
        <ele>263</ele>
        <time>2016-02-08T13:23:48Z</time>
      </trkpt>
      <trkpt lat="43.85268" lon="3.86714">
        <ele>264</ele>
        <time>2016-02-08T13:24:50Z</time>
      </trkpt>
      <trkpt lat="43.85248" lon="3.86727">
        <ele>272</ele>
        <time>2016-02-08T13:25:19Z</time>
      </trkpt>
      <trkpt lat="43.8524" lon="3.86738">
        <ele>271</ele>
        <time>2016-02-08T13:25:30Z</time>
      </trkpt>
      <trkpt lat="43.85238" lon="3.86751">
        <ele>271</ele>
        <time>2016-02-08T13:25:52Z</time>
      </trkpt>
      <trkpt lat="43.85227" lon="3.8676">
        <ele>274</ele>
        <time>2016-02-08T13:26:16Z</time>
      </trkpt>
      <trkpt lat="43.85209" lon="3.8678">
        <ele>277</ele>
        <time>2016-02-08T13:26:56Z</time>
      </trkpt>
      <trkpt lat="43.85204" lon="3.86791">
        <ele>278</ele>
        <time>2016-02-08T13:27:20Z</time>
      </trkpt>
      <trkpt lat="43.85192" lon="3.868">
        <ele>279</ele>
        <time>2016-02-08T13:27:34Z</time>
      </trkpt>
      <trkpt lat="43.85186" lon="3.86812">
        <ele>279</ele>
        <time>2016-02-08T13:28:23Z</time>
      </trkpt>
      <trkpt lat="43.85172" lon="3.86856">
        <ele>287</ele>
        <time>2016-02-08T13:29:03Z</time>
      </trkpt>
      <trkpt lat="43.85162" lon="3.86861">
        <ele>291</ele>
        <time>2016-02-08T13:29:15Z</time>
      </trkpt>
      <trkpt lat="43.85157" lon="3.86874">
        <ele>293</ele>
        <time>2016-02-08T13:29:28Z</time>
      </trkpt>
      <trkpt lat="43.85148" lon="3.86885">
        <ele>295</ele>
        <time>2016-02-08T13:29:42Z</time>
      </trkpt>
      <trkpt lat="43.85145" lon="3.86902">
        <ele>296</ele>
        <time>2016-02-08T13:29:53Z</time>
      </trkpt>
      <trkpt lat="43.85135" lon="3.86905">
        <ele>296</ele>
        <time>2016-02-08T13:30:06Z</time>
      </trkpt>
      <trkpt lat="43.85116" lon="3.86944">
        <ele>302</ele>
        <time>2016-02-08T13:32:07Z</time>
      </trkpt>
      <trkpt lat="43.85101" lon="3.86966">
        <ele>302</ele>
        <time>2016-02-08T13:32:33Z</time>
      </trkpt>
      <trkpt lat="43.85104" lon="3.86981">
        <ele>302</ele>
        <time>2016-02-08T13:32:49Z</time>
      </trkpt>
      <trkpt lat="43.85093" lon="3.86985">
        <ele>301</ele>
        <time>2016-02-08T13:33:19Z</time>
      </trkpt>
      <trkpt lat="43.85079" lon="3.86963">
        <ele>311</ele>
        <time>2016-02-08T13:33:42Z</time>
      </trkpt>
      <trkpt lat="43.85076" lon="3.86943">
        <ele>311</ele>
        <time>2016-02-08T13:33:56Z</time>
      </trkpt>
      <trkpt lat="43.85088" lon="3.86903">
        <ele>300</ele>
        <time>2016-02-08T13:34:25Z</time>
      </trkpt>
      <trkpt lat="43.85091" lon="3.86852">
        <ele>301</ele>
        <time>2016-02-08T13:35:00Z</time>
      </trkpt>
      <trkpt lat="43.85089" lon="3.86768">
        <ele>306</ele>
        <time>2016-02-08T13:35:52Z</time>
      </trkpt>
      <trkpt lat="43.85086" lon="3.86752">
        <ele>313</ele>
        <time>2016-02-08T13:36:03Z</time>
      </trkpt>
      <trkpt lat="43.85077" lon="3.86736">
        <ele>323</ele>
        <time>2016-02-08T13:36:17Z</time>
      </trkpt>
      <trkpt lat="43.85076" lon="3.86719">
        <ele>327</ele>
        <time>2016-02-08T13:36:32Z</time>
      </trkpt>
      <trkpt lat="43.85093" lon="3.86698">
        <ele>312</ele>
        <time>2016-02-08T13:36:51Z</time>
      </trkpt>
      <trkpt lat="43.85108" lon="3.86667">
        <ele>313</ele>
        <time>2016-02-08T13:37:15Z</time>
      </trkpt>
      <trkpt lat="43.85113" lon="3.86649">
        <ele>319</ele>
        <time>2016-02-08T13:37:29Z</time>
      </trkpt>
      <trkpt lat="43.85114" lon="3.86632">
        <ele>320</ele>
        <time>2016-02-08T13:37:43Z</time>
      </trkpt>
      <trkpt lat="43.85127" lon="3.86599">
        <ele>320</ele>
        <time>2016-02-08T13:38:31Z</time>
      </trkpt>
      <trkpt lat="43.85142" lon="3.86576">
        <ele>326</ele>
        <time>2016-02-08T13:38:59Z</time>
      </trkpt>
      <trkpt lat="43.85128" lon="3.86539">
        <ele>331</ele>
        <time>2016-02-08T13:43:16Z</time>
      </trkpt>
      <trkpt lat="43.85117" lon="3.86532">
        <ele>331</ele>
        <time>2016-02-08T13:43:52Z</time>
      </trkpt>
      <trkpt lat="43.85127" lon="3.86509">
        <ele>332</ele>
        <time>2016-02-08T13:46:07Z</time>
      </trkpt>
      <trkpt lat="43.85134" lon="3.86499">
        <ele>335</ele>
        <time>2016-02-08T13:46:18Z</time>
      </trkpt>
      <trkpt lat="43.85139" lon="3.86485">
        <ele>336</ele>
        <time>2016-02-08T13:46:30Z</time>
      </trkpt>
      <trkpt lat="43.8514" lon="3.86469">
        <ele>336</ele>
        <time>2016-02-08T13:46:40Z</time>
      </trkpt>
      <trkpt lat="43.85165" lon="3.86444">
        <ele>336</ele>
        <time>2016-02-08T13:47:08Z</time>
      </trkpt>
      <trkpt lat="43.85195" lon="3.86424">
        <ele>335</ele>
        <time>2016-02-08T13:47:42Z</time>
      </trkpt>
      <trkpt lat="43.85207" lon="3.86422">
        <ele>334</ele>
        <time>2016-02-08T13:47:54Z</time>
      </trkpt>
      <trkpt lat="43.85231" lon="3.86406">
        <ele>337</ele>
        <time>2016-02-08T13:48:15Z</time>
      </trkpt>
      <trkpt lat="43.85258" lon="3.86396">
        <ele>337</ele>
        <time>2016-02-08T13:48:42Z</time>
      </trkpt>
      <trkpt lat="43.85292" lon="3.8637">
        <ele>336</ele>
        <time>2016-02-08T13:49:11Z</time>
      </trkpt>
      <trkpt lat="43.85308" lon="3.8637">
        <ele>336</ele>
        <time>2016-02-08T13:49:24Z</time>
      </trkpt>
      <trkpt lat="43.85342" lon="3.86377">
        <ele>332</ele>
        <time>2016-02-08T13:49:55Z</time>
      </trkpt>
      <trkpt lat="43.85359" lon="3.86368">
        <ele>332</ele>
        <time>2016-02-08T13:52:31Z</time>
      </trkpt>
      <trkpt lat="43.85377" lon="3.86382">
        <ele>330</ele>
        <time>2016-02-08T13:52:52Z</time>
      </trkpt>
      <trkpt lat="43.85386" lon="3.86374">
        <ele>330</ele>
        <time>2016-02-08T13:53:03Z</time>
      </trkpt>
      <trkpt lat="43.85427" lon="3.86365">
        <ele>323</ele>
        <time>2016-02-08T13:53:47Z</time>
      </trkpt>
      <trkpt lat="43.85477" lon="3.86338">
        <ele>322</ele>
        <time>2016-02-08T13:54:36Z</time>
      </trkpt>
      <trkpt lat="43.85499" lon="3.8632">
        <ele>328</ele>
        <time>2016-02-08T13:55:02Z</time>
      </trkpt>
      <trkpt lat="43.85514" lon="3.86314">
        <ele>325</ele>
        <time>2016-02-08T13:55:14Z</time>
      </trkpt>
      <trkpt lat="43.85541" lon="3.86294">
        <ele>325</ele>
        <time>2016-02-08T13:55:45Z</time>
      </trkpt>
      <trkpt lat="43.85577" lon="3.86282">
        <ele>326</ele>
        <time>2016-02-08T13:56:40Z</time>
      </trkpt>
      <trkpt lat="43.85604" lon="3.86255">
        <ele>322</ele>
        <time>2016-02-08T13:57:42Z</time>
      </trkpt>
      <trkpt lat="43.85617" lon="3.86228">
        <ele>328</ele>
        <time>2016-02-08T13:58:13Z</time>
      </trkpt>
      <trkpt lat="43.85627" lon="3.86223">
        <ele>327</ele>
        <time>2016-02-08T13:58:33Z</time>
      </trkpt>
      <trkpt lat="43.85666" lon="3.86183">
        <ele>327</ele>
        <time>2016-02-08T13:59:18Z</time>
      </trkpt>
      <trkpt lat="43.85694" lon="3.86138">
        <ele>325</ele>
        <time>2016-02-08T13:59:57Z</time>
      </trkpt>
      <trkpt lat="43.85736" lon="3.86107">
        <ele>326</ele>
        <time>2016-02-08T14:00:41Z</time>
      </trkpt>
      <trkpt lat="43.85751" lon="3.86104">
        <ele>323</ele>
        <time>2016-02-08T14:01:05Z</time>
      </trkpt>
      <trkpt lat="43.85763" lon="3.86107">
        <ele>322</ele>
        <time>2016-02-08T14:01:16Z</time>
      </trkpt>
      <trkpt lat="43.85774" lon="3.86102">
        <ele>322</ele>
        <time>2016-02-08T14:01:26Z</time>
      </trkpt>
      <trkpt lat="43.85796" lon="3.86104">
        <ele>321</ele>
        <time>2016-02-08T14:01:46Z</time>
      </trkpt>
      <trkpt lat="43.85782" lon="3.86101">
        <ele>322</ele>
        <time>2016-02-08T14:02:50Z</time>
      </trkpt>
      <trkpt lat="43.85771" lon="3.86106">
        <ele>322</ele>
        <time>2016-02-08T14:03:01Z</time>
      </trkpt>
      <trkpt lat="43.85725" lon="3.86083">
        <ele>328</ele>
        <time>2016-02-08T14:03:55Z</time>
      </trkpt>
      <trkpt lat="43.85719" lon="3.86074">
        <ele>329</ele>
        <time>2016-02-08T14:04:04Z</time>
      </trkpt>
      <trkpt lat="43.85725" lon="3.86045">
        <ele>329</ele>
        <time>2016-02-08T14:04:29Z</time>
      </trkpt>
      <trkpt lat="43.85739" lon="3.86035">
        <ele>329</ele>
        <time>2016-02-08T14:04:42Z</time>
      </trkpt>
      <trkpt lat="43.85754" lon="3.86016">
        <ele>329</ele>
        <time>2016-02-08T14:05:31Z</time>
      </trkpt>
      <trkpt lat="43.85726" lon="3.85959">
        <ele>329</ele>
        <time>2016-02-08T14:06:30Z</time>
      </trkpt>
      <trkpt lat="43.85693" lon="3.85966">
        <ele>329</ele>
        <time>2016-02-08T14:07:00Z</time>
      </trkpt>
      <trkpt lat="43.85639" lon="3.85988">
        <ele>329</ele>
        <time>2016-02-08T14:07:43Z</time>
      </trkpt>
      <trkpt lat="43.85586" lon="3.86021">
        <ele>329</ele>
        <time>2016-02-08T14:08:30Z</time>
      </trkpt>
      <trkpt lat="43.85554" lon="3.86036">
        <ele>329</ele>
        <time>2016-02-08T14:08:57Z</time>
      </trkpt>
      <trkpt lat="43.85519" lon="3.86041">
        <ele>329</ele>
        <time>2016-02-08T14:09:24Z</time>
      </trkpt>
      <trkpt lat="43.85468" lon="3.86034">
        <ele>329</ele>
        <time>2016-02-08T14:10:03Z</time>
      </trkpt>
      <trkpt lat="43.85428" lon="3.86047">
        <ele>329</ele>
        <time>2016-02-08T14:10:32Z</time>
      </trkpt>
      <trkpt lat="43.85403" lon="3.86067">
        <ele>329</ele>
        <time>2016-02-08T14:10:55Z</time>
      </trkpt>
      <trkpt lat="43.85396" lon="3.86077">
        <ele>329</ele>
        <time>2016-02-08T14:11:02Z</time>
      </trkpt>
      <trkpt lat="43.85384" lon="3.86101">
        <ele>331</ele>
        <time>2016-02-08T14:11:19Z</time>
      </trkpt>
      <trkpt lat="43.85376" lon="3.86111">
        <ele>331</ele>
        <time>2016-02-08T14:11:28Z</time>
      </trkpt>
      <trkpt lat="43.85338" lon="3.8614">
        <ele>332</ele>
        <time>2016-02-08T14:12:03Z</time>
      </trkpt>
      <trkpt lat="43.85314" lon="3.86151">
        <ele>333</ele>
        <time>2016-02-08T14:12:24Z</time>
      </trkpt>
      <trkpt lat="43.85305" lon="3.86163">
        <ele>333</ele>
        <time>2016-02-08T14:12:34Z</time>
      </trkpt>
      <trkpt lat="43.85232" lon="3.86188">
        <ele>334</ele>
        <time>2016-02-08T14:13:36Z</time>
      </trkpt>
      <trkpt lat="43.85207" lon="3.8619">
        <ele>334</ele>
        <time>2016-02-08T14:13:54Z</time>
      </trkpt>
      <trkpt lat="43.85197" lon="3.86196">
        <ele>334</ele>
        <time>2016-02-08T14:14:02Z</time>
      </trkpt>
      <trkpt lat="43.85188" lon="3.86204">
        <ele>334</ele>
        <time>2016-02-08T14:14:10Z</time>
      </trkpt>
      <trkpt lat="43.85181" lon="3.86216">
        <ele>334</ele>
        <time>2016-02-08T14:14:18Z</time>
      </trkpt>
      <trkpt lat="43.85167" lon="3.86251">
        <ele>333</ele>
        <time>2016-02-08T14:14:44Z</time>
      </trkpt>
      <trkpt lat="43.85148" lon="3.86264">
        <ele>334</ele>
        <time>2016-02-08T14:15:01Z</time>
      </trkpt>
      <trkpt lat="43.85106" lon="3.86311">
        <ele>334</ele>
        <time>2016-02-08T14:15:43Z</time>
      </trkpt>
      <trkpt lat="43.85099" lon="3.86324">
        <ele>334</ele>
        <time>2016-02-08T14:15:52Z</time>
      </trkpt>
      <trkpt lat="43.85081" lon="3.86366">
        <ele>334</ele>
        <time>2016-02-08T14:16:18Z</time>
      </trkpt>
      <trkpt lat="43.8507" lon="3.86382">
        <ele>334</ele>
        <time>2016-02-08T14:18:47Z</time>
      </trkpt>
      <trkpt lat="43.85073" lon="3.86394">
        <ele>334</ele>
        <time>2016-02-08T14:20:13Z</time>
      </trkpt>
      <trkpt lat="43.85066" lon="3.86418">
        <ele>335</ele>
        <time>2016-02-08T14:20:36Z</time>
      </trkpt>
      <trkpt lat="43.85061" lon="3.86432">
        <ele>335</ele>
        <time>2016-02-08T14:20:47Z</time>
      </trkpt>
      <trkpt lat="43.85058" lon="3.86463">
        <ele>334</ele>
        <time>2016-02-08T14:21:05Z</time>
      </trkpt>
      <trkpt lat="43.85058" lon="3.86494">
        <ele>334</ele>
        <time>2016-02-08T14:21:23Z</time>
      </trkpt>
      <trkpt lat="43.85055" lon="3.86524">
        <ele>335</ele>
        <time>2016-02-08T14:21:39Z</time>
      </trkpt>
      <trkpt lat="43.85041" lon="3.86582">
        <ele>336</ele>
        <time>2016-02-08T14:22:13Z</time>
      </trkpt>
      <trkpt lat="43.85049" lon="3.86587">
        <ele>335</ele>
        <time>2016-02-08T14:22:22Z</time>
      </trkpt>
      <trkpt lat="43.85082" lon="3.86597">
        <ele>335</ele>
        <time>2016-02-08T14:22:48Z</time>
      </trkpt>
      <trkpt lat="43.85082" lon="3.86611">
        <ele>334</ele>
        <time>2016-02-08T14:22:58Z</time>
      </trkpt>
      <trkpt lat="43.85071" lon="3.86656">
        <ele>331</ele>
        <time>2016-02-08T14:23:26Z</time>
      </trkpt>
      <trkpt lat="43.85064" lon="3.86668">
        <ele>330</ele>
        <time>2016-02-08T14:23:36Z</time>
      </trkpt>
      <trkpt lat="43.85053" lon="3.86673">
        <ele>331</ele>
        <time>2016-02-08T14:23:47Z</time>
      </trkpt>
      <trkpt lat="43.85043" lon="3.86683">
        <ele>332</ele>
        <time>2016-02-08T14:23:56Z</time>
      </trkpt>
      <trkpt lat="43.85015" lon="3.8673">
        <ele>334</ele>
        <time>2016-02-08T14:24:31Z</time>
      </trkpt>
      <trkpt lat="43.85003" lon="3.86771">
        <ele>334</ele>
        <time>2016-02-08T14:24:58Z</time>
      </trkpt>
      <trkpt lat="43.84988" lon="3.86795">
        <ele>344</ele>
        <time>2016-02-08T14:25:16Z</time>
      </trkpt>
      <trkpt lat="43.84984" lon="3.8681">
        <ele>344</ele>
        <time>2016-02-08T14:25:27Z</time>
      </trkpt>
      <trkpt lat="43.84976" lon="3.86822">
        <ele>344</ele>
        <time>2016-02-08T14:25:37Z</time>
      </trkpt>
      <trkpt lat="43.84976" lon="3.86836">
        <ele>345</ele>
        <time>2016-02-08T14:25:46Z</time>
      </trkpt>
      <trkpt lat="43.84973" lon="3.8685">
        <ele>345</ele>
        <time>2016-02-08T14:25:56Z</time>
      </trkpt>
      <trkpt lat="43.84963" lon="3.86878">
        <ele>346</ele>
        <time>2016-02-08T14:26:18Z</time>
      </trkpt>
      <trkpt lat="43.84962" lon="3.86898">
        <ele>346</ele>
        <time>2016-02-08T14:26:30Z</time>
      </trkpt>
      <trkpt lat="43.84953" lon="3.86926">
        <ele>346</ele>
        <time>2016-02-08T14:26:51Z</time>
      </trkpt>
      <trkpt lat="43.84949" lon="3.86944">
        <ele>346</ele>
        <time>2016-02-08T14:27:02Z</time>
      </trkpt>
      <trkpt lat="43.84933" lon="3.86974">
        <ele>348</ele>
        <time>2016-02-08T14:27:24Z</time>
      </trkpt>
      <trkpt lat="43.84928" lon="3.8699">
        <ele>351</ele>
        <time>2016-02-08T14:27:35Z</time>
      </trkpt>
      <trkpt lat="43.84925" lon="3.87008">
        <ele>348</ele>
        <time>2016-02-08T14:27:46Z</time>
      </trkpt>
      <trkpt lat="43.84896" lon="3.87043">
        <ele>354</ele>
        <time>2016-02-08T14:28:16Z</time>
      </trkpt>
      <trkpt lat="43.84884" lon="3.87065">
        <ele>353</ele>
        <time>2016-02-08T14:28:35Z</time>
      </trkpt>
      <trkpt lat="43.84887" lon="3.87078">
        <ele>352</ele>
        <time>2016-02-08T14:28:45Z</time>
      </trkpt>
      <trkpt lat="43.84882" lon="3.87095">
        <ele>339</ele>
        <time>2016-02-08T14:29:48Z</time>
      </trkpt>
      <trkpt lat="43.84871" lon="3.87097">
        <ele>340</ele>
        <time>2016-02-08T14:29:59Z</time>
      </trkpt>
      <trkpt lat="43.8486" lon="3.87104">
        <ele>340</ele>
        <time>2016-02-08T14:30:09Z</time>
      </trkpt>
      <trkpt lat="43.84849" lon="3.87107">
        <ele>341</ele>
        <time>2016-02-08T14:30:56Z</time>
      </trkpt>
      <trkpt lat="43.84842" lon="3.87101">
        <ele>345</ele>
        <time>2016-02-08T14:31:17Z</time>
      </trkpt>
      <trkpt lat="43.84821" lon="3.87108">
        <ele>341</ele>
        <time>2016-02-08T14:31:41Z</time>
      </trkpt>
      <trkpt lat="43.848" lon="3.87107">
        <ele>339</ele>
        <time>2016-02-08T14:32:01Z</time>
      </trkpt>
      <trkpt lat="43.8479" lon="3.87109">
        <ele>338</ele>
        <time>2016-02-08T14:32:13Z</time>
      </trkpt>
      <trkpt lat="43.8474" lon="3.87096">
        <ele>334</ele>
        <time>2016-02-08T14:33:01Z</time>
      </trkpt>
      <trkpt lat="43.84729" lon="3.87089">
        <ele>331</ele>
        <time>2016-02-08T14:33:11Z</time>
      </trkpt>
      <trkpt lat="43.84723" lon="3.87081">
        <ele>343</ele>
        <time>2016-02-08T14:33:38Z</time>
      </trkpt>
      <trkpt lat="43.84703" lon="3.87072">
        <ele>338</ele>
        <time>2016-02-08T14:33:58Z</time>
      </trkpt>
      <trkpt lat="43.84699" lon="3.8706">
        <ele>338</ele>
        <time>2016-02-08T14:34:08Z</time>
      </trkpt>
      <trkpt lat="43.84698" lon="3.8704">
        <ele>340</ele>
        <time>2016-02-08T14:34:34Z</time>
      </trkpt>
      <trkpt lat="43.847" lon="3.87023">
        <ele>342</ele>
        <time>2016-02-08T14:34:46Z</time>
      </trkpt>
      <trkpt lat="43.84698" lon="3.86995">
        <ele>348</ele>
        <time>2016-02-08T14:35:08Z</time>
      </trkpt>
      <trkpt lat="43.84687" lon="3.86971">
        <ele>348</ele>
        <time>2016-02-08T14:35:29Z</time>
      </trkpt>
      <trkpt lat="43.84673" lon="3.8695">
        <ele>349</ele>
        <time>2016-02-08T14:35:47Z</time>
      </trkpt>
      <trkpt lat="43.84661" lon="3.86941">
        <ele>344</ele>
        <time>2016-02-08T14:35:58Z</time>
      </trkpt>
      <trkpt lat="43.8462" lon="3.86922">
        <ele>343</ele>
        <time>2016-02-08T14:36:33Z</time>
      </trkpt>
      <trkpt lat="43.84593" lon="3.86931">
        <ele>343</ele>
        <time>2016-02-08T14:37:08Z</time>
      </trkpt>
      <trkpt lat="43.84557" lon="3.86924">
        <ele>342</ele>
        <time>2016-02-08T14:38:04Z</time>
      </trkpt>
      <trkpt lat="43.84503" lon="3.8694">
        <ele>344</ele>
        <time>2016-02-08T14:38:52Z</time>
      </trkpt>
      <trkpt lat="43.8449" lon="3.8694">
        <ele>350</ele>
        <time>2016-02-08T14:39:03Z</time>
      </trkpt>
      <trkpt lat="43.84478" lon="3.86947">
        <ele>349</ele>
        <time>2016-02-08T14:39:15Z</time>
      </trkpt>
      <trkpt lat="43.84456" lon="3.86968">
        <ele>349</ele>
        <time>2016-02-08T14:39:42Z</time>
      </trkpt>
      <trkpt lat="43.84444" lon="3.86975">
        <ele>350</ele>
        <time>2016-02-08T14:39:55Z</time>
      </trkpt>
      <trkpt lat="43.8442" lon="3.86998">
        <ele>352</ele>
        <time>2016-02-08T14:40:59Z</time>
      </trkpt>
      <trkpt lat="43.84382" lon="3.87007">
        <ele>349</ele>
        <time>2016-02-08T14:41:41Z</time>
      </trkpt>
      <trkpt lat="43.84372" lon="3.87016">
        <ele>349</ele>
        <time>2016-02-08T14:41:53Z</time>
      </trkpt>
      <trkpt lat="43.84336" lon="3.87031">
        <ele>351</ele>
        <time>2016-02-08T14:42:28Z</time>
      </trkpt>
      <trkpt lat="43.84299" lon="3.87063">
        <ele>363</ele>
        <time>2016-02-08T14:43:13Z</time>
      </trkpt>
      <trkpt lat="43.8426" lon="3.8708">
        <ele>370</ele>
        <time>2016-02-08T14:43:56Z</time>
      </trkpt>
      <trkpt lat="43.84252" lon="3.87091">
        <ele>365</ele>
        <time>2016-02-08T14:44:15Z</time>
      </trkpt>
      <trkpt lat="43.8424" lon="3.87102">
        <ele>373</ele>
        <time>2016-02-08T14:44:30Z</time>
      </trkpt>
      <trkpt lat="43.84203" lon="3.87127">
        <ele>375</ele>
        <time>2016-02-08T14:45:17Z</time>
      </trkpt>
      <trkpt lat="43.84192" lon="3.87131">
        <ele>377</ele>
        <time>2016-02-08T14:45:33Z</time>
      </trkpt>
      <trkpt lat="43.84184" lon="3.8714">
        <ele>378</ele>
        <time>2016-02-08T14:45:46Z</time>
      </trkpt>
      <trkpt lat="43.84172" lon="3.87148">
        <ele>380</ele>
        <time>2016-02-08T14:45:58Z</time>
      </trkpt>
      <trkpt lat="43.84138" lon="3.87168">
        <ele>380</ele>
        <time>2016-02-08T14:46:35Z</time>
      </trkpt>
      <trkpt lat="43.84119" lon="3.87183">
        <ele>380</ele>
        <time>2016-02-08T14:46:58Z</time>
      </trkpt>
      <trkpt lat="43.84103" lon="3.87205">
        <ele>377</ele>
        <time>2016-02-08T14:47:20Z</time>
      </trkpt>
      <trkpt lat="43.84085" lon="3.87207">
        <ele>378</ele>
        <time>2016-02-08T14:49:48Z</time>
      </trkpt>
      <trkpt lat="43.84075" lon="3.87218">
        <ele>369</ele>
        <time>2016-02-08T14:50:48Z</time>
      </trkpt>
      <trkpt lat="43.84082" lon="3.87206">
        <ele>372</ele>
        <time>2016-02-08T14:52:51Z</time>
      </trkpt>
      <trkpt lat="43.84075" lon="3.87211">
        <ele>370</ele>
        <time>2016-02-08T14:54:14Z</time>
      </trkpt>
      <trkpt lat="43.84072" lon="3.87192">
        <ele>374</ele>
        <time>2016-02-08T14:55:28Z</time>
      </trkpt>
      <trkpt lat="43.84066" lon="3.87181">
        <ele>376</ele>
        <time>2016-02-08T14:55:37Z</time>
      </trkpt>
      <trkpt lat="43.84065" lon="3.87167">
        <ele>378</ele>
        <time>2016-02-08T14:55:46Z</time>
      </trkpt>
      <trkpt lat="43.84074" lon="3.87146">
        <ele>382</ele>
        <time>2016-02-08T14:56:18Z</time>
      </trkpt>
      <trkpt lat="43.84077" lon="3.87073">
        <ele>386</ele>
        <time>2016-02-08T14:57:06Z</time>
      </trkpt>
      <trkpt lat="43.8408" lon="3.8706">
        <ele>382</ele>
        <time>2016-02-08T14:57:14Z</time>
      </trkpt>
      <trkpt lat="43.84084" lon="3.87046">
        <ele>392</ele>
        <time>2016-02-08T14:57:23Z</time>
      </trkpt>
      <trkpt lat="43.84094" lon="3.87024">
        <ele>391</ele>
        <time>2016-02-08T14:57:43Z</time>
      </trkpt>
      <trkpt lat="43.84123" lon="3.86977">
        <ele>390</ele>
        <time>2016-02-08T14:58:20Z</time>
      </trkpt>
      <trkpt lat="43.84136" lon="3.86952">
        <ele>390</ele>
        <time>2016-02-08T14:58:37Z</time>
      </trkpt>
      <trkpt lat="43.84186" lon="3.86905">
        <ele>386</ele>
        <time>2016-02-08T14:59:31Z</time>
      </trkpt>
      <trkpt lat="43.8422" lon="3.86867">
        <ele>383</ele>
        <time>2016-02-08T15:00:14Z</time>
      </trkpt>
      <trkpt lat="43.84231" lon="3.86862">
        <ele>383</ele>
        <time>2016-02-08T15:00:26Z</time>
      </trkpt>
      <trkpt lat="43.84263" lon="3.86824">
        <ele>379</ele>
        <time>2016-02-08T15:03:25Z</time>
      </trkpt>
      <trkpt lat="43.84272" lon="3.868">
        <ele>377</ele>
        <time>2016-02-08T15:03:41Z</time>
      </trkpt>
      <trkpt lat="43.84287" lon="3.86779">
        <ele>376</ele>
        <time>2016-02-08T15:03:57Z</time>
      </trkpt>
      <trkpt lat="43.84295" lon="3.86742">
        <ele>371</ele>
        <time>2016-02-08T15:04:19Z</time>
      </trkpt>
      <trkpt lat="43.84299" lon="3.86729">
        <ele>370</ele>
        <time>2016-02-08T15:04:27Z</time>
      </trkpt>
      <trkpt lat="43.84329" lon="3.86692">
        <ele>368</ele>
        <time>2016-02-08T15:04:59Z</time>
      </trkpt>
      <trkpt lat="43.84345" lon="3.86666">
        <ele>363</ele>
        <time>2016-02-08T15:05:21Z</time>
      </trkpt>
      <trkpt lat="43.84369" lon="3.86646">
        <ele>360</ele>
        <time>2016-02-08T15:05:43Z</time>
      </trkpt>
      <trkpt lat="43.84394" lon="3.86632">
        <ele>358</ele>
        <time>2016-02-08T15:06:04Z</time>
      </trkpt>
      <trkpt lat="43.84404" lon="3.86622">
        <ele>358</ele>
        <time>2016-02-08T15:06:16Z</time>
      </trkpt>
      <trkpt lat="43.84409" lon="3.86611">
        <ele>357</ele>
        <time>2016-02-08T15:06:31Z</time>
      </trkpt>
      <trkpt lat="43.84403" lon="3.86601">
        <ele>356</ele>
        <time>2016-02-08T15:06:45Z</time>
      </trkpt>
      <trkpt lat="43.84362" lon="3.86611">
        <ele>357</ele>
        <time>2016-02-08T15:07:25Z</time>
      </trkpt>
      <trkpt lat="43.84353" lon="3.86609">
        <ele>357</ele>
        <time>2016-02-08T15:08:11Z</time>
      </trkpt>
      <trkpt lat="43.84332" lon="3.86622">
        <ele>358</ele>
        <time>2016-02-08T15:08:28Z</time>
      </trkpt>
      <trkpt lat="43.8431" lon="3.86631">
        <ele>358</ele>
        <time>2016-02-08T15:08:45Z</time>
      </trkpt>
      <trkpt lat="43.84299" lon="3.86629">
        <ele>358</ele>
        <time>2016-02-08T15:08:58Z</time>
      </trkpt>
      <trkpt lat="43.84301" lon="3.86615">
        <ele>357</ele>
        <time>2016-02-08T15:09:08Z</time>
      </trkpt>
      <trkpt lat="43.84299" lon="3.86602">
        <ele>356</ele>
        <time>2016-02-08T15:09:15Z</time>
      </trkpt>
      <trkpt lat="43.84291" lon="3.86598">
        <ele>355</ele>
        <time>2016-02-08T15:09:23Z</time>
      </trkpt>
      <trkpt lat="43.84282" lon="3.86585">
        <ele>354</ele>
        <time>2016-02-08T15:09:55Z</time>
      </trkpt>
      <trkpt lat="43.84284" lon="3.86571">
        <ele>348</ele>
        <time>2016-02-08T15:10:04Z</time>
      </trkpt>
      <trkpt lat="43.84278" lon="3.86542">
        <ele>347</ele>
        <time>2016-02-08T15:10:20Z</time>
      </trkpt>
      <trkpt lat="43.84272" lon="3.86516">
        <ele>345</ele>
        <time>2016-02-08T15:10:36Z</time>
      </trkpt>
      <trkpt lat="43.84266" lon="3.86504">
        <ele>344</ele>
        <time>2016-02-08T15:10:45Z</time>
      </trkpt>
      <trkpt lat="43.84249" lon="3.86512">
        <ele>342</ele>
        <time>2016-02-08T15:11:01Z</time>
      </trkpt>
      <trkpt lat="43.84233" lon="3.86532">
        <ele>344</ele>
        <time>2016-02-08T15:11:18Z</time>
      </trkpt>
      <trkpt lat="43.8422" lon="3.86554">
        <ele>345</ele>
        <time>2016-02-08T15:11:34Z</time>
      </trkpt>
      <trkpt lat="43.84204" lon="3.8657">
        <ele>345</ele>
        <time>2016-02-08T15:11:50Z</time>
      </trkpt>
      <trkpt lat="43.84175" lon="3.86578">
        <ele>345</ele>
        <time>2016-02-08T15:12:14Z</time>
      </trkpt>
      <trkpt lat="43.84144" lon="3.86568">
        <ele>344</ele>
        <time>2016-02-08T15:12:47Z</time>
      </trkpt>
      <trkpt lat="43.8412" lon="3.86577">
        <ele>344</ele>
        <time>2016-02-08T15:13:05Z</time>
      </trkpt>
      <trkpt lat="43.84091" lon="3.86606">
        <ele>347</ele>
        <time>2016-02-08T15:13:32Z</time>
      </trkpt>
      <trkpt lat="43.84069" lon="3.86637">
        <ele>348</ele>
        <time>2016-02-08T15:13:56Z</time>
      </trkpt>
      <trkpt lat="43.84061" lon="3.86644">
        <ele>349</ele>
        <time>2016-02-08T15:14:04Z</time>
      </trkpt>
      <trkpt lat="43.84034" lon="3.86662">
        <ele>348</ele>
        <time>2016-02-08T15:14:31Z</time>
      </trkpt>
      <trkpt lat="43.84026" lon="3.86673">
        <ele>352</ele>
        <time>2016-02-08T15:14:41Z</time>
      </trkpt>
      <trkpt lat="43.84018" lon="3.8668">
        <ele>352</ele>
        <time>2016-02-08T15:14:49Z</time>
      </trkpt>
      <trkpt lat="43.83987" lon="3.86731">
        <ele>352</ele>
        <time>2016-02-08T15:15:27Z</time>
      </trkpt>
      <trkpt lat="43.8397" lon="3.86787">
        <ele>354</ele>
        <time>2016-02-08T15:16:00Z</time>
      </trkpt>
      <trkpt lat="43.83963" lon="3.86797">
        <ele>354</ele>
        <time>2016-02-08T15:16:09Z</time>
      </trkpt>
      <trkpt lat="43.83957" lon="3.86812">
        <ele>353</ele>
        <time>2016-02-08T15:16:21Z</time>
      </trkpt>
      <trkpt lat="43.83946" lon="3.86847">
        <ele>350</ele>
        <time>2016-02-08T15:16:42Z</time>
      </trkpt>
      <trkpt lat="43.83947" lon="3.86892">
        <ele>349</ele>
        <time>2016-02-08T15:17:10Z</time>
      </trkpt>
      <trkpt lat="43.83941" lon="3.86905">
        <ele>346</ele>
        <time>2016-02-08T15:18:54Z</time>
      </trkpt>
      <trkpt lat="43.83954" lon="3.86905">
        <ele>350</ele>
        <time>2016-02-08T15:19:05Z</time>
      </trkpt>
      <trkpt lat="43.83965" lon="3.86928">
        <ele>347</ele>
        <time>2016-02-08T15:19:25Z</time>
      </trkpt>
      <trkpt lat="43.83968" lon="3.86942">
        <ele>347</ele>
        <time>2016-02-08T15:19:38Z</time>
      </trkpt>
      <trkpt lat="43.83963" lon="3.86957">
        <ele>345</ele>
        <time>2016-02-08T15:19:53Z</time>
      </trkpt>
      <trkpt lat="43.83962" lon="3.86995">
        <ele>343</ele>
        <time>2016-02-08T15:20:22Z</time>
      </trkpt>
      <trkpt lat="43.83949" lon="3.87029">
        <ele>334</ele>
        <time>2016-02-08T15:20:55Z</time>
      </trkpt>
      <trkpt lat="43.83942" lon="3.87041">
        <ele>333</ele>
        <time>2016-02-08T15:22:27Z</time>
      </trkpt>
      <trkpt lat="43.83938" lon="3.87075">
        <ele>328</ele>
        <time>2016-02-08T15:22:58Z</time>
      </trkpt>
      <trkpt lat="43.83941" lon="3.87108">
        <ele>329</ele>
        <time>2016-02-08T15:23:21Z</time>
      </trkpt>
      <trkpt lat="43.83923" lon="3.87148">
        <ele>323</ele>
        <time>2016-02-08T15:23:59Z</time>
      </trkpt>
      <trkpt lat="43.83923" lon="3.87163">
        <ele>317</ele>
        <time>2016-02-08T15:24:17Z</time>
      </trkpt>
      <trkpt lat="43.8393" lon="3.87176">
        <ele>319</ele>
        <time>2016-02-08T15:24:34Z</time>
      </trkpt>
      <trkpt lat="43.83933" lon="3.87196">
        <ele>322</ele>
        <time>2016-02-08T15:26:05Z</time>
      </trkpt>
      <trkpt lat="43.83945" lon="3.87225">
        <ele>323</ele>
        <time>2016-02-08T15:26:33Z</time>
      </trkpt>
      <trkpt lat="43.8395" lon="3.87243">
        <ele>322</ele>
        <time>2016-02-08T15:26:49Z</time>
      </trkpt>
      <trkpt lat="43.83962" lon="3.87275">
        <ele>317</ele>
        <time>2016-02-08T15:27:11Z</time>
      </trkpt>
      <trkpt lat="43.83965" lon="3.87289">
        <ele>316</ele>
        <time>2016-02-08T15:27:21Z</time>
      </trkpt>
      <trkpt lat="43.83972" lon="3.87299">
        <ele>317</ele>
        <time>2016-02-08T15:27:32Z</time>
      </trkpt>
      <trkpt lat="43.83975" lon="3.87314">
        <ele>316</ele>
        <time>2016-02-08T15:27:41Z</time>
      </trkpt>
      <trkpt lat="43.83983" lon="3.87323">
        <ele>318</ele>
        <time>2016-02-08T15:27:53Z</time>
      </trkpt>
      <trkpt lat="43.8399" lon="3.87334">
        <ele>315</ele>
        <time>2016-02-08T15:28:02Z</time>
      </trkpt>
      <trkpt lat="43.83994" lon="3.87348">
        <ele>311</ele>
        <time>2016-02-08T15:28:10Z</time>
      </trkpt>
      <trkpt lat="43.84035" lon="3.87409">
        <ele>317</ele>
        <time>2016-02-08T15:28:57Z</time>
      </trkpt>
      <trkpt lat="43.84054" lon="3.8745">
        <ele>301</ele>
        <time>2016-02-08T15:29:31Z</time>
      </trkpt>
      <trkpt lat="43.84076" lon="3.87461">
        <ele>301</ele>
        <time>2016-02-08T15:29:56Z</time>
      </trkpt>
      <trkpt lat="43.84096" lon="3.8748">
        <ele>299</ele>
        <time>2016-02-08T15:30:18Z</time>
      </trkpt>
      <trkpt lat="43.84105" lon="3.87486">
        <ele>299</ele>
        <time>2016-02-08T15:30:27Z</time>
      </trkpt>
      <trkpt lat="43.84116" lon="3.87488">
        <ele>299</ele>
        <time>2016-02-08T15:30:37Z</time>
      </trkpt>
      <trkpt lat="43.84128" lon="3.87485">
        <ele>299</ele>
        <time>2016-02-08T15:30:49Z</time>
      </trkpt>
      <trkpt lat="43.8416" lon="3.8747">
        <ele>298</ele>
        <time>2016-02-08T15:31:19Z</time>
      </trkpt>
      <trkpt lat="43.84171" lon="3.87469">
        <ele>287</ele>
        <time>2016-02-08T15:31:32Z</time>
      </trkpt>
      <trkpt lat="43.84181" lon="3.87461">
        <ele>287</ele>
        <time>2016-02-08T15:31:49Z</time>
      </trkpt>
      <trkpt lat="43.84188" lon="3.87446">
        <ele>289</ele>
        <time>2016-02-08T15:32:02Z</time>
      </trkpt>
      <trkpt lat="43.84204" lon="3.87429">
        <ele>287</ele>
        <time>2016-02-08T15:32:29Z</time>
      </trkpt>
      <trkpt lat="43.84249" lon="3.87405">
        <ele>287</ele>
        <time>2016-02-08T15:33:21Z</time>
      </trkpt>
      <trkpt lat="43.84267" lon="3.87389">
        <ele>274</ele>
        <time>2016-02-08T15:33:44Z</time>
      </trkpt>
      <trkpt lat="43.84319" lon="3.87367">
        <ele>268</ele>
        <time>2016-02-08T15:34:42Z</time>
      </trkpt>
      <trkpt lat="43.84374" lon="3.87353">
        <ele>249</ele>
        <time>2016-02-08T15:35:36Z</time>
      </trkpt>
      <trkpt lat="43.84434" lon="3.87317">
        <ele>245</ele>
        <time>2016-02-08T15:36:33Z</time>
      </trkpt>
      <trkpt lat="43.84454" lon="3.87318">
        <ele>243</ele>
        <time>2016-02-08T15:36:54Z</time>
      </trkpt>
      <trkpt lat="43.84463" lon="3.8733">
        <ele>241</ele>
        <time>2016-02-08T15:37:13Z</time>
      </trkpt>
      <trkpt lat="43.84462" lon="3.87351">
        <ele>231</ele>
        <time>2016-02-08T15:37:31Z</time>
      </trkpt>
      <trkpt lat="43.84455" lon="3.87396">
        <ele>228</ele>
        <time>2016-02-08T15:38:08Z</time>
      </trkpt>
      <trkpt lat="43.84438" lon="3.87457">
        <ele>216</ele>
        <time>2016-02-08T15:38:56Z</time>
      </trkpt>
      <trkpt lat="43.84412" lon="3.87506">
        <ele>209</ele>
        <time>2016-02-08T15:39:39Z</time>
      </trkpt>
      <trkpt lat="43.84405" lon="3.87523">
        <ele>210</ele>
        <time>2016-02-08T15:39:52Z</time>
      </trkpt>
      <trkpt lat="43.84396" lon="3.87536">
        <ele>209</ele>
        <time>2016-02-08T15:40:42Z</time>
      </trkpt>
      <trkpt lat="43.84383" lon="3.87534">
        <ele>210</ele>
        <time>2016-02-08T15:40:55Z</time>
      </trkpt>
      <trkpt lat="43.84377" lon="3.87545">
        <ele>210</ele>
        <time>2016-02-08T15:41:07Z</time>
      </trkpt>
      <trkpt lat="43.84378" lon="3.87562">
        <ele>208</ele>
        <time>2016-02-08T15:41:20Z</time>
      </trkpt>
      <trkpt lat="43.84344" lon="3.87643">
        <ele>199</ele>
        <time>2016-02-08T15:42:10Z</time>
      </trkpt>
      <trkpt lat="43.84309" lon="3.87776">
        <ele>195</ele>
        <time>2016-02-08T15:43:33Z</time>
      </trkpt>
      <trkpt lat="43.84294" lon="3.87814">
        <ele>194</ele>
        <time>2016-02-08T15:43:58Z</time>
      </trkpt>
      <trkpt lat="43.84291" lon="3.87828">
        <ele>194</ele>
        <time>2016-02-08T15:44:05Z</time>
      </trkpt>
      <trkpt lat="43.84288" lon="3.87872">
        <ele>191</ele>
        <time>2016-02-08T15:44:32Z</time>
      </trkpt>
      <trkpt lat="43.84297" lon="3.87916">
        <ele>190</ele>
        <time>2016-02-08T15:46:07Z</time>
      </trkpt>
      <trkpt lat="43.84297" lon="3.87909">
        <ele>190</ele>
        <time>2016-02-08T15:55:14Z</time>
      </trkpt>
    </trkseg>
  </trk>
</gpx>